Wetterdaten: Woche 03.09.01 - 09.09.01 (KW36)
Datum Zeit Temperatur Luftfeuchte Luftdruck Regenmenge Wind Richtung Taupunkt Windchill
03.09.2001 00:00 10.8 C 92 % 1009.9 hPa 0.0 l/m 0.0 km/h (0 Bft) N 9.5 C 10.8 C
03.09.2001 01:00 9.7 C 93 % 1009.7 hPa 0.0 l/m 0.0 km/h (0 Bft) N 8.6 C 9.7 C
03.09.2001 02:00 9.1 C 94 % 1009.0 hPa 0.0 l/m 0.2 km/h (0 Bft) O-SO 8.2 C 9.1 C
03.09.2001 03:00 8.5 C 95 % 1008.8 hPa 0.0 l/m 0.0 km/h (0 Bft) N 7.8 C 8.5 C
03.09.2001 04:00 8.1 C 96 % 1008.8 hPa 0.0 l/m 0.0 km/h (0 Bft) N 7.5 C 8.1 C
03.09.2001 05:00 7.8 C 96 % 1007.8 hPa 0.0 l/m 0.0 km/h (0 Bft) N 7.2 C 7.8 C
03.09.2001 06:00 8.3 C 97 % 1007.8 hPa 0.0 l/m 0.1 km/h (0 Bft) N 7.8 C 8.3 C
03.09.2001 07:00 8.9 C 97 % 1007.8 hPa 0.0 l/m 0.4 km/h (0 Bft) O-SO 8.4 C 8.9 C
03.09.2001 08:00 9.6 C 95 % 1007.8 hPa 0.0 l/m 0.2 km/h (0 Bft) O-SO 8.9 C 9.6 C
03.09.2001 09:00 10.6 C 92 % 1008.1 hPa 0.0 l/m 0.9 km/h (0 Bft) O-SO 9.4 C 10.6 C
03.09.2001 10:00 13.3 C 86 % 1007.9 hPa 0.0 l/m 5.5 km/h (1 Bft) O-SO 11.0 C 13.3 C
03.09.2001 11:00 16.8 C 70 % 1007.8 hPa 0.0 l/m 6.2 km/h (2 Bft) O-SO 11.2 C 16.8 C
03.09.2001 12:00 19.3 C 59 % 1006.8 hPa 0.0 l/m 5.8 km/h (2 Bft) O-SO 11.0 C 19.3 C
03.09.2001 13:00 20.8 C 55 % 1006.2 hPa 0.0 l/m 4.4 km/h (1 Bft) SO 11.5 C 20.8 C
03.09.2001 14:00 22.2 C 50 % 1005.7 hPa 0.0 l/m 4.0 km/h (1 Bft) O-SO 11.2 C 22.2 C
03.09.2001 15:00 23.0 C 48 % 1005.0 hPa 0.0 l/m 2.1 km/h (1 Bft) W-SW 11.3 C 23.0 C
03.09.2001 16:00 23.3 C 49 % 1004.7 hPa 0.0 l/m 2.3 km/h (1 Bft) W 12.0 C 23.3 C
03.09.2001 17:00 23.0 C 49 % 1004.5 hPa 0.0 l/m 1.0 km/h (0 Bft) O-SO 11.8 C 23.0 C
03.09.2001 18:00 22.4 C 54 % 1003.6 hPa 0.0 l/m 1.0 km/h (0 Bft) O-SO 12.6 C 22.4 C
03.09.2001 19:00 20.0 C 67 % 1003.7 hPa 0.0 l/m 1.1 km/h (0 Bft) W 13.6 C 20.0 C
03.09.2001 20:00 17.7 C 71 % 1004.7 hPa 0.0 l/m 4.2 km/h (1 Bft) W-NW 12.4 C 17.7 C
03.09.2001 21:00 16.5 C 76 % 1004.7 hPa 0.0 l/m 6.3 km/h (2 Bft) O-SO 12.1 C 16.5 C
03.09.2001 22:00 16.0 C 77 % 1004.7 hPa 0.0 l/m 5.0 km/h (1 Bft) O-SO 12.0 C 16.0 C
03.09.2001 23:00 14.7 C 82 % 1004.7 hPa 0.0 l/m 1.3 km/h (1 Bft) O-SO 11.7 C 14.7 C
04.09.2001 00:00 14.1 C 86 % 1004.7 hPa 0.0 l/m 1.6 km/h (1 Bft) O-SO 11.8 C 14.1 C
04.09.2001 01:00 14.0 C 89 % 1004.7 hPa 0.0 l/m 1.4 km/h (1 Bft) O-SO 12.1 C 14.0 C
04.09.2001 02:00 14.2 C 90 % 1004.8 hPa 0.0 l/m 4.5 km/h (1 Bft) SO 12.5 C 14.2 C
04.09.2001 03:00 13.9 C 91 % 1004.7 hPa 1.3 l/m 3.2 km/h (1 Bft) O-SO 12.6 C 13.9 C
04.09.2001 04:00 13.7 C 94 % 1003.7 hPa 0.0 l/m 2.4 km/h (1 Bft) O-SO 12.7 C 13.7 C
04.09.2001 05:00 13.7 C 94 % 1003.6 hPa 0.0 l/m 2.5 km/h (1 Bft) SO 12.7 C 13.7 C
04.09.2001 06:00 13.6 C 95 % 1003.6 hPa 0.9 l/m 5.0 km/h (1 Bft) SO 12.8 C 13.6 C
04.09.2001 07:00 13.6 C 95 % 1003.6 hPa 0.3 l/m 3.0 km/h (1 Bft) O-SO 12.8 C 13.6 C
04.09.2001 08:00 13.5 C 94 % 1003.6 hPa 1.3 l/m 6.2 km/h (2 Bft) SO 12.5 C 13.5 C
04.09.2001 09:00 13.2 C 94 % 1003.6 hPa 3.1 l/m 3.9 km/h (1 Bft) O-SO 12.3 C 13.2 C
04.09.2001 10:00 13.4 C 94 % 1003.6 hPa 2.8 l/m 4.2 km/h (1 Bft) W-NW 12.4 C 13.4 C
04.09.2001 11:00 13.3 C 90 % 1003.6 hPa 0.3 l/m 16.6 km/h (3 Bft) W-NW 11.6 C 13.3 C
04.09.2001 12:00 13.9 C 86 % 1003.6 hPa 0.0 l/m 9.2 km/h (2 Bft) W-NW 11.6 C 13.9 C
04.09.2001 13:00 14.9 C 79 % 1003.2 hPa 0.0 l/m 6.1 km/h (2 Bft) W 11.4 C 14.9 C
04.09.2001 14:00 14.9 C 81 % 1002.6 hPa 0.0 l/m 3.1 km/h (1 Bft) W 11.6 C 14.9 C
04.09.2001 15:00 14.0 C 86 % 1002.6 hPa 0.3 l/m 4.7 km/h (1 Bft) W 11.8 C 14.0 C
04.09.2001 16:00 14.2 C 89 % 1002.6 hPa 0.3 l/m 1.0 km/h (0 Bft) SW 12.4 C 14.2 C
04.09.2001 17:00 14.7 C 85 % 1001.8 hPa 0.0 l/m 7.2 km/h (2 Bft) S 12.3 C 14.7 C
04.09.2001 18:00 14.1 C 86 % 1001.6 hPa 0.6 l/m 3.7 km/h (1 Bft) W-NW 11.7 C 14.1 C
04.09.2001 19:00 12.2 C 88 % 1002.2 hPa 0.3 l/m 16.5 km/h (3 Bft) W-NW 10.4 C 12.2 C
04.09.2001 20:00 11.3 C 90 % 1002.7 hPa 0.3 l/m 18.3 km/h (3 Bft) W-NW 9.7 C 11.3 C
04.09.2001 21:00 11.4 C 86 % 1003.9 hPa 0.0 l/m 15.7 km/h (3 Bft) W-NW 9.1 C 11.4 C
04.09.2001 22:00 11.0 C 85 % 1004.7 hPa 0.0 l/m 5.3 km/h (1 Bft) W 8.6 C 11.0 C
04.09.2001 23:00 10.7 C 87 % 1005.3 hPa 0.0 l/m 1.3 km/h (1 Bft) W 8.7 C 10.7 C
05.09.2001 00:00 10.2 C 91 % 1005.7 hPa 0.3 l/m 0.8 km/h (0 Bft) S 8.8 C 10.2 C
05.09.2001 01:00 10.2 C 93 % 1006.7 hPa 0.3 l/m 1.8 km/h (1 Bft) O-SO 9.2 C 10.2 C
05.09.2001 02:00 10.4 C 92 % 1006.8 hPa 0.0 l/m 1.6 km/h (1 Bft) W-NW 9.2 C 10.4 C
05.09.2001 03:00 10.4 C 88 % 1007.8 hPa 0.0 l/m 15.4 km/h (3 Bft) W-NW 8.6 C 10.4 C
05.09.2001 04:00 10.6 C 87 % 1007.8 hPa 0.0 l/m 13.0 km/h (3 Bft) W-NW 8.5 C 10.6 C
05.09.2001 05:00 10.7 C 88 % 1007.8 hPa 0.0 l/m 15.4 km/h (3 Bft) W-NW 8.8 C 10.7 C
05.09.2001 06:00 10.8 C 88 % 1008.1 hPa 0.0 l/m 16.1 km/h (3 Bft) W-NW 8.9 C 10.8 C
05.09.2001 07:00 10.8 C 86 % 1008.8 hPa 0.0 l/m 18.7 km/h (3 Bft) W-NW 8.6 C 10.8 C
05.09.2001 08:00 11.0 C 84 % 1009.1 hPa 0.0 l/m 18.7 km/h (3 Bft) W-NW 8.5 C 11.0 C
05.09.2001 09:00 11.1 C 84 % 1009.9 hPa 0.0 l/m 16.7 km/h (3 Bft) W-NW 8.5 C 11.1 C
05.09.2001 10:00 11.6 C 82 % 1010.6 hPa 0.0 l/m 16.4 km/h (3 Bft) W-NW 8.7 C 11.6 C
05.09.2001 11:00 12.9 C 76 % 1010.9 hPa 0.0 l/m 19.9 km/h (4 Bft) W-NW 8.8 C 12.9 C
05.09.2001 12:00 13.5 C 72 % 1010.9 hPa 0.0 l/m 21.0 km/h (4 Bft) W-NW 8.6 C 13.5 C
05.09.2001 13:00 14.3 C 68 % 1010.2 hPa 0.0 l/m 20.0 km/h (4 Bft) W-NW 8.3 C 14.3 C
05.09.2001 14:00 12.2 C 83 % 1010.9 hPa 0.9 l/m 15.6 km/h (3 Bft) W-NW 9.3 C 12.2 C
05.09.2001 15:00 12.4 C 82 % 1010.9 hPa 0.0 l/m 13.1 km/h (3 Bft) W-NW 9.4 C 12.4 C
05.09.2001 16:00 13.0 C 77 % 1010.9 hPa 0.0 l/m 11.4 km/h (2 Bft) W-NW 9.1 C 13.0 C
05.09.2001 17:00 13.4 C 72 % 1010.9 hPa 0.0 l/m 17.4 km/h (3 Bft) W-NW 8.4 C 13.4 C
05.09.2001 18:00 12.6 C 75 % 1010.9 hPa 0.0 l/m 10.9 km/h (2 Bft) W-NW 8.2 C 12.6 C
05.09.2001 19:00 12.4 C 76 % 1011.8 hPa 0.0 l/m 4.9 km/h (1 Bft) W-NW 8.2 C 12.4 C
05.09.2001 20:00 11.6 C 78 % 1011.9 hPa 0.0 l/m 5.8 km/h (2 Bft) W-NW 8.0 C 11.6 C
05.09.2001 21:00 11.4 C 78 % 1011.9 hPa 0.0 l/m 3.5 km/h (1 Bft) W-NW 7.7 C 11.4 C
05.09.2001 22:00 11.0 C 80 % 1011.9 hPa 0.0 l/m 3.8 km/h (1 Bft) W 7.7 C 11.0 C
05.09.2001 23:00 10.6 C 81 % 1011.9 hPa 0.0 l/m 1.7 km/h (1 Bft) W 7.4 C 10.6 C
06.09.2001 00:00 10.1 C 82 % 1011.9 hPa 0.0 l/m 0.2 km/h (0 Bft) O-SO 7.1 C 10.1 C
06.09.2001 01:00 9.7 C 84 % 1011.9 hPa 0.0 l/m 0.4 km/h (0 Bft) O 7.2 C 9.7 C
06.09.2001 02:00 9.7 C 85 % 1011.9 hPa 0.0 l/m 0.0 km/h (0 Bft) N 7.3 C 9.7 C
06.09.2001 03:00 9.8 C 85 % 1011.4 hPa 0.0 l/m 0.0 km/h (0 Bft) N 7.3 C 9.8 C
06.09.2001 04:00 9.2 C 87 % 1010.9 hPa 0.0 l/m 0.9 km/h (0 Bft) O-SO 7.1 C 9.2 C
06.09.2001 05:00 7.5 C 92 % 1010.9 hPa 0.0 l/m 1.0 km/h (0 Bft) SO 6.2 C 7.5 C
06.09.2001 06:00 6.6 C 95 % 1010.9 hPa 0.0 l/m 1.5 km/h (1 Bft) O-SO 5.8 C 6.5 C
06.09.2001 07:00 6.8 C 96 % 1010.9 hPa 0.0 l/m 2.2 km/h (1 Bft) O-SO 6.2 C 6.6 C
06.09.2001 08:00 8.0 C 94 % 1010.9 hPa 0.0 l/m 1.2 km/h (1 Bft) O-SO 7.2 C 7.9 C
06.09.2001 09:00 9.3 C 87 % 1010.9 hPa 0.0 l/m 0.7 km/h (0 Bft) O-SO 7.2 C 9.3 C
06.09.2001 10:00 11.7 C 78 % 1010.4 hPa 0.0 l/m 1.3 km/h (1 Bft) O-SO 8.0 C 11.7 C
06.09.2001 11:00 12.8 C 72 % 1010.4 hPa 0.0 l/m 1.2 km/h (1 Bft) W-NW 7.9 C 12.8 C
06.09.2001 12:00 13.9 C 66 % 1009.8 hPa 0.0 l/m 5.1 km/h (1 Bft) W 7.6 C 13.9 C
06.09.2001 13:00 15.2 C 59 % 1008.8 hPa 0.0 l/m 6.6 km/h (2 Bft) W-NW 7.2 C 15.2 C
06.09.2001 14:00 15.9 C 57 % 1008.8 hPa 0.0 l/m 10.0 km/h (2 Bft) W-NW 7.5 C 15.9 C
06.09.2001 15:00 15.8 C 58 % 1007.9 hPa 0.0 l/m 7.0 km/h (2 Bft) W-NW 7.5 C 15.8 C
06.09.2001 16:00 14.7 C 66 % 1007.8 hPa 0.0 l/m 10.7 km/h (2 Bft) W-NW 8.4 C 14.7 C
06.09.2001 17:00 13.5 C 75 % 1007.8 hPa 0.0 l/m 9.4 km/h (2 Bft) W-NW 9.2 C 13.5 C
06.09.2001 18:00 13.0 C 79 % 1007.8 hPa 0.3 l/m 5.5 km/h (1 Bft) W 9.5 C 13.0 C
06.09.2001 19:00 12.6 C 81 % 1007.8 hPa 0.0 l/m 2.9 km/h (1 Bft) W 9.4 C 12.6 C
06.09.2001 20:00 11.9 C 88 % 1008.3 hPa 0.0 l/m 0.9 km/h (0 Bft) W-SW 9.9 C 11.9 C
06.09.2001 21:00 11.8 C 91 % 1008.8 hPa 0.0 l/m 0.1 km/h (0 Bft) W-SW 10.3 C 11.8 C
06.09.2001 22:00 11.9 C 92 % 1008.7 hPa 0.0 l/m 0.6 km/h (0 Bft) SO 10.6 C 11.9 C
06.09.2001 23:00 11.9 C 91 % 1008.8 hPa 0.0 l/m 1.8 km/h (1 Bft) O-SO 10.5 C 11.9 C
07.09.2001 00:00 11.7 C 90 % 1008.6 hPa 0.3 l/m 0.7 km/h (0 Bft) O-SO 10.2 C 11.7 C
07.09.2001 01:00 11.6 C 93 % 1008.0 hPa 0.3 l/m 0.2 km/h (0 Bft) N 10.4 C 11.6 C
07.09.2001 02:00 11.7 C 94 % 1007.8 hPa 0.0 l/m 0.1 km/h (0 Bft) N 10.7 C 11.7 C
07.09.2001 03:00 11.8 C 94 % 1007.8 hPa 0.3 l/m 2.0 km/h (1 Bft) SO 10.9 C 11.8 C
07.09.2001 04:00 12.0 C 95 % 1007.8 hPa 0.0 l/m 0.4 km/h (0 Bft) O-SO 11.2 C 12.0 C
07.09.2001 05:00 12.2 C 95 % 1007.8 hPa 0.0 l/m 0.1 km/h (0 Bft) N 11.5 C 12.2 C
07.09.2001 06:00 12.6 C 94 % 1007.8 hPa 0.0 l/m 1.1 km/h (1 Bft) W-NW 11.7 C 12.6 C
07.09.2001 07:00 12.8 C 93 % 1008.8 hPa 0.0 l/m 0.2 km/h (0 Bft) W 11.8 C 12.8 C
07.09.2001 08:00 13.4 C 90 % 1008.8 hPa 0.0 l/m 0.4 km/h (0 Bft) S-SW 11.7 C 13.4 C
07.09.2001 09:00 14.4 C 85 % 1009.1 hPa 0.0 l/m 0.1 km/h (0 Bft) N 12.0 C 14.4 C
07.09.2001 10:00 15.2 C 80 % 1009.9 hPa 0.0 l/m 2.5 km/h (1 Bft) W 11.9 C 15.2 C
07.09.2001 11:00 15.9 C 76 % 1009.9 hPa 0.0 l/m 7.0 km/h (2 Bft) W 11.8 C 15.9 C
07.09.2001 12:00 16.7 C 73 % 1009.9 hPa 0.0 l/m 10.9 km/h (2 Bft) W-NW 11.8 C 16.7 C
07.09.2001 13:00 16.8 C 70 % 1009.8 hPa 0.0 l/m 10.7 km/h (2 Bft) W-NW 11.2 C 16.8 C
07.09.2001 14:00 16.9 C 69 % 1009.6 hPa 0.0 l/m 9.7 km/h (2 Bft) W-NW 11.2 C 16.9 C
07.09.2001 15:00 17.2 C 62 % 1008.8 hPa 0.0 l/m 19.5 km/h (3 Bft) W-NW 9.9 C 17.2 C
07.09.2001 16:00 18.1 C 57 % 1008.8 hPa 0.0 l/m 24.4 km/h (4 Bft) W-NW 9.5 C 18.1 C
07.09.2001 17:00 16.8 C 60 % 1009.3 hPa 0.0 l/m 22.3 km/h (4 Bft) W-NW 9.0 C 16.8 C
07.09.2001 18:00 15.9 C 62 % 1009.7 hPa 0.0 l/m 16.6 km/h (3 Bft) W-NW 8.7 C 15.9 C
07.09.2001 19:00 15.3 C 66 % 1009.1 hPa 0.0 l/m 8.6 km/h (2 Bft) W-NW 8.9 C 15.3 C
07.09.2001 20:00 14.3 C 70 % 1009.9 hPa 0.0 l/m 5.2 km/h (1 Bft) W 8.8 C 14.3 C
07.09.2001 21:00 14.2 C 72 % 1009.9 hPa 0.0 l/m 6.0 km/h (2 Bft) W-NW 9.3 C 14.2 C
07.09.2001 22:00 14.1 C 74 % 1009.9 hPa 0.0 l/m 5.8 km/h (2 Bft) W-NW 9.5 C 14.1 C
07.09.2001 23:00 13.9 C 76 % 1009.9 hPa 0.0 l/m 10.5 km/h (2 Bft) W-NW 9.7 C 13.9 C
08.09.2001 00:00 13.6 C 77 % 1009.7 hPa 0.0 l/m 13.7 km/h (3 Bft) W-NW 9.7 C 13.6 C
08.09.2001 01:00 13.6 C 77 % 1008.8 hPa 0.0 l/m 14.7 km/h (3 Bft) W-NW 9.7 C 13.6 C
08.09.2001 02:00 13.6 C 77 % 1008.2 hPa 0.0 l/m 8.3 km/h (2 Bft) W 9.7 C 13.6 C
08.09.2001 03:00 13.9 C 76 % 1007.6 hPa 0.0 l/m 14.5 km/h (3 Bft) W-NW 9.7 C 13.9 C
08.09.2001 04:00 14.2 C 74 % 1006.7 hPa 0.0 l/m 11.5 km/h (2 Bft) W 9.6 C 14.2 C
08.09.2001 05:00 14.0 C 77 % 1006.4 hPa 0.0 l/m 8.1 km/h (2 Bft) W 10.0 C 14.0 C
08.09.2001 06:00 13.9 C 77 % 1005.7 hPa 0.0 l/m 5.0 km/h (1 Bft) SW 10.0 C 13.9 C
08.09.2001 07:00 14.5 C 70 % 1005.7 hPa 0.0 l/m 15.3 km/h (3 Bft) W-NW 9.2 C 14.5 C
08.09.2001 08:00 14.8 C 70 % 1005.7 hPa 0.0 l/m 18.8 km/h (3 Bft) W-NW 9.3 C 14.8 C
08.09.2001 09:00 14.7 C 73 % 1005.7 hPa 0.0 l/m 18.4 km/h (3 Bft) W-NW 9.9 C 14.7 C
08.09.2001 10:00 14.6 C 76 % 1005.7 hPa 0.0 l/m 21.7 km/h (4 Bft) W-NW 10.5 C 14.6 C
08.09.2001 11:00 14.4 C 79 % 1005.8 hPa 0.0 l/m 23.6 km/h (4 Bft) W-NW 10.7 C 14.4 C
08.09.2001 12:00 13.9 C 84 % 1005.7 hPa 0.3 l/m 17.0 km/h (3 Bft) W-NW 11.2 C 13.9 C
08.09.2001 13:00 14.2 C 83 % 1005.2 hPa 0.0 l/m 15.4 km/h (3 Bft) W-NW 11.4 C 14.2 C
08.09.2001 14:00 14.1 C 83 % 1004.7 hPa 0.0 l/m 17.6 km/h (3 Bft) W-NW 11.2 C 14.1 C
08.09.2001 15:00 14.3 C 79 % 1004.7 hPa 0.0 l/m 19.3 km/h (3 Bft) W-NW 10.7 C 14.3 C
08.09.2001 16:00 13.5 C 86 % 1004.7 hPa 0.3 l/m 10.6 km/h (2 Bft) W-NW 11.2 C 13.5 C
08.09.2001 17:00 13.7 C 84 % 1004.2 hPa 0.0 l/m 10.2 km/h (2 Bft) W-NW 11.1 C 13.7 C
08.09.2001 18:00 13.2 C 86 % 1003.6 hPa 0.6 l/m 3.9 km/h (1 Bft) W 10.9 C 13.2 C
08.09.2001 19:00 12.8 C 93 % 1002.9 hPa 1.9 l/m 0.7 km/h (0 Bft) W-SW 11.7 C 12.8 C
08.09.2001 20:00 12.6 C 92 % 1002.6 hPa 0.6 l/m 3.8 km/h (1 Bft) SO 11.4 C 12.6 C
08.09.2001 21:00 12.5 C 91 % 1001.6 hPa 1.6 l/m 3.3 km/h (1 Bft) SO 11.1 C 12.5 C
08.09.2001 22:00 12.5 C 92 % 1000.8 hPa 2.8 l/m 3.2 km/h (1 Bft) W-SW 11.2 C 12.5 C
08.09.2001 23:00 12.7 C 93 % 1000.5 hPa 3.1 l/m 11.2 km/h (2 Bft) NW 11.7 C 12.7 C
09.09.2001 00:00 11.3 C 86 % 1001.4 hPa 0.9 l/m 19.7 km/h (3 Bft) NW 9.0 C 11.3 C
09.09.2001 01:00 10.3 C 90 % 1002.3 hPa 0.9 l/m 16.6 km/h (3 Bft) W-NW 8.6 C 10.3 C
09.09.2001 02:00 9.8 C 92 % 1002.8 hPa 0.9 l/m 5.4 km/h (1 Bft) W-NW 8.7 C 9.6 C
09.09.2001 03:00 8.6 C 93 % 1003.6 hPa 0.3 l/m 1.2 km/h (1 Bft) W 7.6 C 8.5 C
09.09.2001 04:00 7.2 C 95 % 1004.5 hPa 0.0 l/m 5.5 km/h (1 Bft) O-SO 6.4 C 6.2 C
09.09.2001 05:00 6.7 C 96 % 1005.6 hPa 0.0 l/m 2.9 km/h (1 Bft) SO 6.1 C 6.3 C
09.09.2001 06:00 6.6 C 96 % 1006.0 hPa 0.0 l/m 1.2 km/h (1 Bft) SO 5.9 C 6.5 C
09.09.2001 07:00 6.9 C 95 % 1006.7 hPa 0.0 l/m 0.1 km/h (0 Bft) N 6.2 C 6.9 C
09.09.2001 08:00 7.7 C 92 % 1006.7 hPa 0.0 l/m 1.5 km/h (1 Bft) O-NO 6.6 C 7.5 C
09.09.2001 09:00 8.9 C 86 % 1006.7 hPa 0.0 l/m 5.9 km/h (2 Bft) W-NW 6.6 C 8.1 C
09.09.2001 10:00 10.2 C 74 % 1006.7 hPa 0.0 l/m 17.7 km/h (3 Bft) W-NW 5.7 C 9.0 C
09.09.2001 11:00 11.2 C 68 % 1006.7 hPa 0.0 l/m 16.2 km/h (3 Bft) W-NW 5.6 C 11.2 C
09.09.2001 12:00 12.3 C 61 % 1006.7 hPa 0.0 l/m 15.7 km/h (3 Bft) W-NW 4.9 C 12.3 C
09.09.2001 13:00 12.9 C 54 % 1005.7 hPa 0.0 l/m 22.6 km/h (4 Bft) W-NW 3.9 C 12.9 C
09.09.2001 14:00 13.8 C 52 % 1005.7 hPa 0.0 l/m 20.3 km/h (4 Bft) W-NW 4.2 C 13.8 C
09.09.2001 15:00 14.1 C 50 % 1005.1 hPa 0.0 l/m 20.4 km/h (4 Bft) W-NW 3.7 C 14.1 C
09.09.2001 16:00 12.8 C 63 % 1004.8 hPa 0.9 l/m 17.3 km/h (3 Bft) W-NW 5.6 C 12.6 C
09.09.2001 17:00 12.5 C 72 % 1004.7 hPa 0.0 l/m 8.0 km/h (2 Bft) W-NW 7.5 C 12.5 C
09.09.2001 18:00 12.3 C 68 % 1004.7 hPa 0.0 l/m 3.9 km/h (1 Bft) W-NW 6.4 C 12.3 C
09.09.2001 19:00 11.8 C 66 % 1004.7 hPa 0.0 l/m 12.2 km/h (2 Bft) W-NW 5.6 C 11.8 C
09.09.2001 20:00 9.8 C 72 % 1005.5 hPa 0.0 l/m 11.9 km/h (2 Bft) NW 4.8 C 9.2 C
09.09.2001 21:00 8.5 C 81 % 1005.7 hPa 0.0 l/m 5.5 km/h (1 Bft) O-SO 5.4 C 7.8 C
09.09.2001 22:00 7.9 C 83 % 1005.7 hPa 0.0 l/m 1.8 km/h (1 Bft) SO 5.2 C 7.7 C
09.09.2001 23:00 7.6 C 87 % 1006.2 hPa 0.0 l/m 4.5 km/h (1 Bft) O-SO 5.5 C 6.9 C
Min-Datum _ 06.09.01 03.09.01 08.09.01 - 03.09.01 - 09.09.01 09.09.01
_ Min-Zeit 07:07 15:55 22:18 - 00:01 - 15:24 04:50
Minimum _ 6.2 C 44 % 1000.5 hPa - 0.0 km/h (0 Bft) - 2.5 C 4.9 C
Max-Datum _ 03.09.01 03.09.01 05.09.01 04.09.01 09.09.01 - 03.09.01 03.09.01
_ Max-Zeit 16:52 04:43 19:06 08:00 20:15 - 19:16 16:52
Maximum _ 23.8 C 97 % 1011.9 hPa 3.1 l/m 41.5 km/h
NW (6 Bft)
- 14.2 C 23.8 C
Durchschnitt _ 12.8 C 81 % 1007.0 hPa #30.0 l/m 7.4 km/h (2 Bft) W-NW 9.4 C 12.8 C

Durchschnitt Minimum Temp.12.3 C
Durchschnitt Maximum Temp.13.4 C
© Kaiko 2001